Time;durP1;ratioP1;P1;durP2;ratioP2;P2;SDS_P1;SDS_P2;PMS_P1;PMS_P2;Temp;Humidity;BMP_temperature;BMP_pressure;BME280_temperature;BME280_humidity;BME280_pressure;Samples;Min_cycle;Max_cycle;Signal;HPM_P1;HPM_P2
2022/08/02 00:02:31;;;;;;;2.65;1.38;;;20.40;78.20;;;;;;10562953;28;20024;-61
2022/08/02 00:07:33;;;;;;;2.95;1.30;;;20.40;78.30;;;;;;10550766;28;20439;-62
2022/08/02 00:12:33;;;;;;;1.45;1.27;;;20.40;78.40;;;;;;10570215;28;20071;-62
2022/08/02 00:17:34;;;;;;;2.13;1.20;;;20.30;78.40;;;;;;10558727;28;20032;-62
2022/08/02 00:22:35;;;;;;;2.47;1.30;;;20.30;78.50;;;;;;10566693;28;20031;-62
2022/08/02 00:27:36;;;;;;;1.35;1.25;;;20.30;78.50;;;;;;10557730;28;20036;-62
2022/08/02 00:32:36;;;;;;;2.95;1.52;;;20.20;78.50;;;;;;10555894;28;20024;-62
2022/08/02 00:37:39;;;;;;;1.95;1.50;;;20.20;78.50;;;;;;10558956;28;20042;-62
2022/08/02 00:42:39;;;;;;;2.40;1.52;;;20.20;78.50;;;;;;10564598;28;20020;-61
2022/08/02 00:47:40;;;;;;;2.58;1.35;;;20.20;78.60;;;;;;10563310;28;20046;-62
2022/08/02 00:52:41;;;;;;;2.50;1.33;;;20.20;78.60;;;;;;10563528;28;20592;-61
2022/08/02 00:57:42;;;;;;;3.03;1.50;;;20.10;78.60;;;;;;10554208;28;20034;-61
2022/08/02 01:02:42;;;;;;;3.38;1.52;;;20.10;78.60;;;;;;10559351;28;20571;-61
2022/08/02 01:07:43;;;;;;;3.92;1.67;;;20.00;78.50;;;;;;10552083;28;20020;-61
2022/08/02 01:12:44;;;;;;;3.63;1.60;;;20.00;78.60;;;;;;10569255;28;20046;-62
2022/08/02 01:18:02;;;;;;;5.25;1.92;;;20.00;78.50;;;;;;10567657;28;20028;-62
2022/08/02 01:23:44;;;;;;;2.10;1.38;;;20.00;78.50;;;;;;10567361;28;20119;-59
2022/08/02 01:29:02;;;;;;;2.22;1.30;;;19.90;78.50;;;;;;10562220;28;20015;-62
2022/08/02 01:34:18;;;;;;;2.35;1.55;;;19.90;78.60;;;;;;10553500;28;20086;-61
2022/08/02 01:39:22;;;;;;;2.35;1.40;;;19.80;78.50;;;;;;10555477;28;20030;-61
2022/08/02 01:44:25;;;;;;;2.55;1.42;;;19.80;78.50;;;;;;10555387;28;20014;-61
2022/08/02 01:49:29;;;;;;;3.92;1.60;;;19.80;78.60;;;;;;10570503;28;20032;-61
2022/08/02 01:54:32;;;;;;;3.13;1.55;;;19.80;78.60;;;;;;10557806;28;20071;-61
2022/08/02 01:59:35;;;;;;;3.58;1.55;;;19.70;78.50;;;;;;10557018;28;20024;-62
2022/08/02 02:04:37;;;;;;;3.03;1.70;;;19.70;78.60;;;;;;10569102;28;20073;-60
2022/08/02 02:09:39;;;;;;;2.10;1.45;;;19.70;79.20;;;;;;10560161;28;20020;-61
2022/08/02 02:14:41;;;;;;;2.58;1.50;;;19.60;78.60;;;;;;10538277;28;20405;-61
2022/08/02 02:19:44;;;;;;;3.53;1.45;;;19.70;78.60;;;;;;10546316;28;20015;-61
2022/08/02 02:24:45;;;;;;;3.67;1.60;;;19.60;78.60;;;;;;10567003;28;20054;-62
2022/08/02 02:29:49;;;;;;;2.75;1.65;;;19.60;78.60;;;;;;10562058;28;20020;-60
2022/08/02 02:34:50;;;;;;;2.20;1.67;;;19.60;78.70;;;;;;10542624;28;20572;-62
2022/08/02 02:39:53;;;;;;;3.75;1.80;;;19.50;78.60;;;;;;10553092;28;20039;-60
2022/08/02 02:44:55;;;;;;;3.55;1.50;;;19.50;78.70;;;;;;10563736;28;20036;-61
2022/08/02 02:49:57;;;;;;;3.97;1.80;;;19.50;78.70;;;;;;10562083;28;20020;-61
2022/08/02 02:55:00;;;;;;;4.03;1.60;;;19.50;78.70;;;;;;10551217;28;20456;-61
2022/08/02 03:00:01;;;;;;;2.95;1.65;;;19.40;78.70;;;;;;10552602;28;20128;-62
2022/08/02 03:05:03;;;;;;;4.45;2.50;;;19.40;78.70;;;;;;10558692;28;20044;-62
2022/08/02 03:10:05;;;;;;;3.42;1.80;;;19.30;78.80;;;;;;10541017;28;20295;-61
2022/08/02 03:15:11;;;;;;;6.97;2.22;;;19.30;78.80;;;;;;10532526;28;20058;-62
2022/08/02 03:20:17;;;;;;;4.85;1.88;;;19.30;78.80;;;;;;10566815;28;20067;-61
2022/08/02 03:25:18;;;;;;;4.72;2.03;;;19.30;78.90;;;;;;10560480;28;20437;-61
2022/08/02 03:30:19;;;;;;;5.78;1.95;;;19.30;79.50;;;;;;10551241;28;20051;-62
2022/08/02 03:35:20;;;;;;;2.75;1.50;;;19.20;78.80;;;;;;10546032;28;20105;-59
2022/08/02 03:40:21;;;;;;;4.90;1.85;;;19.20;78.90;;;;;;10547796;28;20020;-62
2022/08/02 03:45:23;;;;;;;3.30;1.70;;;19.20;78.90;;;;;;10571185;28;20067;-62
2022/08/02 03:50:25;;;;;;;4.20;2.08;;;19.20;78.90;;;;;;10571512;28;20028;-61
2022/08/02 03:55:26;;;;;;;3.17;1.80;;;19.20;79.00;;;;;;10558077;28;20122;-59
2022/08/02 04:00:26;;;;;;;2.88;1.70;;;19.10;78.90;;;;;;10553589;28;20020;-61
2022/08/02 04:05:27;;;;;;;4.60;2.20;;;19.10;78.90;;;;;;10551855;28;20044;-61
2022/08/02 04:10:28;;;;;;;3.13;1.80;;;19.10;79.00;;;;;;10546096;28;20057;-62
2022/08/02 04:15:29;;;;;;;2.33;1.92;;;19.10;78.90;;;;;;10503258;28;20356;-58
2022/08/02 04:20:32;;;;;;;6.72;1.95;;;19.10;79.00;;;;;;10470189;28;20078;-58
2022/08/02 04:25:34;;;;;;;4.18;2.35;;;19.00;78.90;;;;;;10475665;28;20457;-57
2022/08/02 04:30:36;;;;;;;2.40;1.75;;;19.00;79.00;;;;;;10461253;28;20011;-59
2022/08/02 04:35:37;;;;;;;3.70;1.90;;;19.00;79.00;;;;;;10455966;28;20064;-59
2022/08/02 04:40:37;;;;;;;2.85;1.65;;;18.60;78.80;;;;;;10451413;28;20289;-59
2022/08/02 04:45:38;;;;;;;2.55;1.70;;;19.00;79.00;;;;;;10459729;28;20132;-59
2022/08/02 04:50:39;;;;;;;2.67;1.65;;;19.00;79.00;;;;;;10460786;28;20189;-60
2022/08/02 04:55:40;;;;;;;4.53;1.80;;;19.00;79.00;;;;;;10456124;28;20693;-60
2022/08/02 05:00:41;;;;;;;3.03;1.80;;;19.00;79.30;;;;;;10465695;28;20065;-59
2022/08/02 05:05:41;;;;;;;3.05;1.67;;;18.90;79.00;;;;;;10458127;28;20058;-60
2022/08/02 05:10:42;;;;;;;5.20;1.98;;;18.90;79.00;;;;;;10449586;28;20548;-59
2022/08/02 05:15:43;;;;;;;3.83;1.98;;;18.90;79.10;;;;;;10471484;28;20112;-59
2022/08/02 05:20:44;;;;;;;3.13;1.70;;;18.90;79.10;;;;;;10475442;28;20036;-58
2022/08/02 05:25:44;;;;;;;2.53;1.60;;;18.90;79.10;;;;;;10480236;28;20341;-60
2022/08/02 05:30:45;;;;;;;3.88;1.70;;;18.90;79.10;;;;;;10458725;28;20063;-61
2022/08/02 05:35:46;;;;;;;3.22;1.50;;;18.90;79.10;;;;;;10454801;28;20889;-61
2022/08/02 05:40:47;;;;;;;2.75;1.60;;;19.10;79.30;;;;;;10459662;28;20310;-61
2022/08/02 05:45:47;;;;;;;2.85;1.92;;;18.90;79.20;;;;;;10479330;28;20015;-61
2022/08/02 05:50:53;;;;;;;6.13;2.13;;;18.80;79.60;;;;;;10471774;28;20055;-60
2022/08/02 05:56:10;;;;;;;6.38;2.13;;;18.70;80.10;;;;;;10466278;28;20743;-59
2022/08/02 06:01:15;;;;;;;4.28;1.75;;;18.70;80.40;;;;;;10470611;28;20339;-62
2022/08/02 06:06:21;;;;;;;7.95;2.30;;;18.70;80.20;;;;;;10467391;28;20509;-58
2022/08/02 06:11:25;;;;;;;5.05;1.85;;;18.80;80.20;;;;;;10461103;28;20039;-61
2022/08/02 06:16:26;;;;;;;4.13;1.85;;;18.80;80.10;;;;;;10474302;28;20443;-59
2022/08/02 06:21:28;;;;;;;4.47;1.77;;;18.90;80.10;;;;;;10463492;28;20024;-59
2022/08/02 06:26:29;;;;;;;2.75;1.50;;;18.90;80.00;;;;;;10479608;28;20436;-60
2022/08/02 06:31:29;;;;;;;6.10;1.75;;;19.20;80.20;;;;;;10475877;28;20051;-61
2022/08/02 06:36:51;;;;;;;4.03;2.10;;;18.90;80.00;;;;;;10466753;28;20170;-59
2022/08/02 06:41:57;;;;;;;2.28;1.35;;;18.90;80.10;;;;;;10464690;28;20553;-59
2022/08/02 06:46:57;;;;;;;4.70;2.10;;;18.90;80.00;;;;;;10469716;28;20331;-61
2022/08/02 06:51:58;;;;;;;2.10;1.50;;;19.00;80.00;;;;;;10466507;28;20657;-61
2022/08/02 06:56:59;;;;;;;4.00;1.77;;;19.00;80.00;;;;;;10473634;28;20043;-59
2022/08/02 07:02:01;;;;;;;2.75;1.58;;;19.00;80.00;;;;;;10467696;28;21008;-59
2022/08/02 07:07:03;;;;;;;2.40;1.40;;;19.10;80.10;;;;;;10468339;28;20337;-59
2022/08/02 07:12:04;;;;;;;4.22;1.55;;;19.10;80.10;;;;;;10459880;28;20028;-61
2022/08/02 07:17:05;;;;;;;2.05;1.40;;;19.10;80.00;;;;;;10480361;28;20078;-60
2022/08/02 07:22:06;;;;;;;3.88;1.63;;;19.10;80.00;;;;;;10470099;28;20299;-62
2022/08/02 07:27:06;;;;;;;2.50;1.50;;;19.10;80.00;;;;;;10459179;28;20372;-60
2022/08/02 07:32:07;;;;;;;2.70;1.58;;;19.20;80.10;;;;;;10461865;28;20024;-59
2022/08/02 07:37:08;;;;;;;2.22;1.48;;;19.20;80.10;;;;;;10469918;28;20533;-60
2022/08/02 07:42:09;;;;;;;3.80;1.60;;;19.20;80.10;;;;;;10461725;28;20476;-61
2022/08/02 07:47:09;;;;;;;2.15;1.55;;;19.30;80.00;;;;;;10473751;28;20030;-59
2022/08/02 07:52:10;;;;;;;1.58;1.23;;;19.30;80.00;;;;;;10479726;28;20011;-59
2022/08/02 07:57:11;;;;;;;2.97;1.40;;;19.30;80.00;;;;;;10472493;28;20710;-59
2022/08/02 08:02:13;;;;;;;1.88;1.40;;;19.40;80.00;;;;;;10479318;28;20100;-62
2022/08/02 08:07:14;;;;;;;2.75;1.42;;;19.40;79.90;;;;;;10457454;28;20074;-59
2022/08/02 08:12:15;;;;;;;5.47;1.58;;;19.50;79.90;;;;;;10482325;28;20223;-63
2022/08/02 08:17:16;;;;;;;2.13;1.30;;;19.60;80.00;;;;;;10462500;28;20044;-59
2022/08/02 08:22:16;;;;;;;2.30;1.30;;;19.60;80.10;;;;;;10474231;28;20039;-58
2022/08/02 08:27:19;;;;;;;1.90;1.40;;;19.60;80.20;;;;;;10458876;28;20030;-58
2022/08/02 08:32:20;;;;;;;4.68;1.50;;;19.70;80.30;;;;;;10472823;28;20474;-59
2022/08/02 08:37:21;;;;;;;2.13;1.30;;;19.90;80.40;;;;;;10459434;28;20048;-61
2022/08/02 08:42:22;;;;;;;1.67;1.40;;;19.80;80.30;;;;;;10448247;28;20023;-59
2022/08/02 08:47:27;;;;;;;2.50;1.45;;;19.80;80.30;;;;;;10477617;28;20500;-58
2022/08/02 08:52:32;;;;;;;3.38;1.50;;;19.80;80.20;;;;;;10463425;28;20038;-58
2022/08/02 08:57:36;;;;;;;2.67;1.55;;;19.90;80.30;;;;;;10471822;28;20058;-58
2022/08/02 09:02:37;;;;;;;3.05;1.60;;;20.00;80.30;;;;;;10475344;28;20059;-60
2022/08/02 09:07:37;;;;;;;5.97;1.48;;;20.00;80.30;;;;;;10448532;28;20063;-59
2022/08/02 09:12:38;;;;;;;1.80;1.40;;;20.10;80.30;;;;;;10457338;28;20032;-59
2022/08/02 09:17:50;;;;;;;1.70;1.55;;;20.20;80.30;;;;;;10465491;28;20035;-59
2022/08/02 09:23:10;;;;;;;3.15;2.03;;;20.20;80.50;;;;;;10465041;28;20135;-62
2022/08/02 09:28:10;;;;;;;3.40;1.67;;;20.30;80.70;;;;;;10460858;28;20019;-60
2022/08/02 09:33:11;;;;;;;2.60;1.65;;;20.30;80.40;;;;;;10459235;28;20461;-59
2022/08/02 09:38:13;;;;;;;2.30;1.80;;;20.40;80.40;;;;;;10461754;28;20871;-63
2022/08/02 09:43:15;;;;;;;2.50;1.85;;;20.60;80.50;;;;;;10475196;28;20512;-58
2022/08/02 09:48:15;;;;;;;3.42;2.17;;;20.60;80.50;;;;;;10464338;28;20459;-59
2022/08/02 09:53:18;;;;;;;2.38;1.90;;;20.70;80.50;;;;;;10460714;28;20040;-59
2022/08/02 09:58:19;;;;;;;2.15;1.48;;;20.80;80.50;;;;;;10463941;28;20552;-59
2022/08/02 10:03:20;;;;;;;2.45;1.85;;;20.80;80.90;;;;;;10474072;28;20048;-59
2022/08/02 10:08:21;;;;;;;4.00;2.00;;;20.80;80.60;;;;;;10467102;28;20624;-62
2022/08/02 10:13:22;;;;;;;2.70;2.17;;;20.90;80.80;;;;;;10446086;28;20031;-59
2022/08/02 10:18:23;;;;;;;3.08;1.80;;;20.90;81.00;;;;;;10468762;28;20028;-59
2022/08/02 10:23:26;;;;;;;3.05;1.70;;;21.00;81.00;;;;;;10463258;28;20318;-62
2022/08/02 10:28:30;;;;;;;4.22;2.20;;;20.90;81.00;;;;;;10696763;22;20608;-59
2022/08/02 10:33:34;;;;;;;3.22;2.40;;;21.20;81.20;;;;;;10556116;27;20448;-60
2022/08/02 10:38:35;;;;;;;4.88;2.15;;;21.20;81.30;;;;;;10537789;27;20151;-59
2022/08/02 10:43:43;;;;;;;2.90;2.17;;;21.30;81.40;;;;;;10559316;27;20374;-63
2022/08/02 10:49:11;;;;;;;2.90;2.00;;;21.30;81.40;;;;;;10545339;27;20104;-59
2022/08/02 10:54:16;;;;;;;;;;;21.40;81.90;;;;;;10536550;27;20023;-63
2022/08/02 10:59:32;;;;;;;4.00;2.00;;;21.50;82.20;;;;;;10543021;27;20145;-59
2022/08/02 11:04:35;;;;;;;3.70;2.30;;;21.30;81.50;;;;;;10553312;27;20641;-59
2022/08/02 11:09:37;;;;;;;2.80;2.13;;;21.60;81.40;;;;;;10552109;27;20049;-61
2022/08/02 11:14:42;;;;;;;3.80;2.38;;;21.70;81.50;;;;;;10538529;27;20019;-60
2022/08/02 11:20:12;;;;;;;3.10;2.10;;;21.80;81.70;;;;;;10545100;27;20088;-59
2022/08/02 11:25:22;;;;;;;3.05;1.95;;;21.90;82.20;;;;;;10556887;27;21195;-59
2022/08/02 11:30:23;;;;;;;3.67;1.90;;;21.90;82.00;;;;;;10548578;27;20336;-60
2022/08/02 11:35:36;;;;;;;3.70;2.50;;;22.00;81.90;;;;;;10539588;27;20545;-59
2022/08/02 11:40:37;;;;;;;2.40;2.00;;;22.00;82.30;;;;;;10539782;27;20210;-60
2022/08/02 11:45:38;;;;;;;2.33;1.95;;;22.10;82.10;;;;;;10539721;27;20019;-61
2022/08/02 11:50:39;;;;;;;3.45;2.08;;;22.20;82.20;;;;;;10545054;27;20030;-59
2022/08/02 11:55:40;;;;;;;2.30;1.83;;;22.20;82.20;;;;;;10555249;27;20035;-58
2022/08/02 12:00:45;;;;;;;2.70;2.05;;;22.30;82.30;;;;;;10550534;27;20030;-60
2022/08/02 12:05:49;;;;;;;2.03;1.83;;;22.30;82.30;;;;;;10557084;27;20035;-60
2022/08/02 12:10:50;;;;;;;3.65;2.10;;;22.30;82.50;;;;;;10532537;27;20807;-61
2022/08/02 12:15:51;;;;;;;3.13;1.73;;;22.40;82.50;;;;;;10558380;27;20505;-60
2022/08/02 12:20:51;;;;;;;2.20;1.95;;;22.50;82.70;;;;;;10537519;27;20023;-62
2022/08/02 12:26:06;;;;;;;2.90;2.20;;;22.60;82.60;;;;;;10558450;27;20810;-60
2022/08/02 12:31:16;;;;;;;3.65;2.00;;;22.70;82.90;;;;;;10538469;27;20050;-60
2022/08/02 12:36:28;;;;;;;2.40;2.15;;;22.70;82.60;;;;;;10543143;27;20318;-60
2022/08/02 12:41:29;;;;;;;2.38;1.80;;;22.70;82.90;;;;;;10516104;27;20027;-60
2022/08/02 12:46:32;;;;;;;2.70;2.10;;;22.70;83.00;;;;;;10557374;27;20030;-61
2022/08/02 12:51:37;;;;;;;3.97;2.10;;;22.70;83.00;;;;;;10550660;27;20398;-60
2022/08/02 12:56:39;;;;;;;2.65;2.10;;;22.70;83.20;;;;;;10554945;27;20579;-60
2022/08/02 13:01:40;;;;;;;2.72;1.90;;;22.70;83.40;;;;;;10533641;27;20022;-63
2022/08/02 13:06:41;;;;;;;3.97;2.33;;;22.70;83.40;;;;;;10538943;27;20023;-60
2022/08/02 13:11:42;;;;;;;3.38;2.13;;;22.80;83.50;;;;;;10542481;27;20398;-63
2022/08/02 13:16:44;;;;;;;2.83;2.28;;;22.80;83.50;;;;;;10559314;27;20580;-60
2022/08/02 13:21:47;;;;;;;4.05;2.05;;;22.90;83.50;;;;;;10547409;27;20100;-59
2022/08/02 13:26:47;;;;;;;3.13;2.50;;;22.90;83.50;;;;;;10531250;27;20046;-62
2022/08/02 13:31:48;;;;;;;4.10;2.55;;;22.90;83.50;;;;;;10536337;27;20845;-59
2022/08/02 13:36:49;;;;;;;4.07;2.58;;;23.00;83.60;;;;;;10547590;27;20481;-62
2022/08/02 13:41:50;;;;;;;3.33;2.55;;;23.00;83.60;;;;;;10555856;27;20043;-61
2022/08/02 13:46:51;;;;;;;3.25;2.53;;;23.00;83.70;;;;;;10556049;27;20115;-62
2022/08/02 13:51:51;;;;;;;2.67;2.03;;;23.10;83.80;;;;;;10558047;27;20275;-61
2022/08/02 13:56:52;;;;;;;4.05;2.50;;;23.10;83.90;;;;;;10548045;27;20328;-62
2022/08/02 14:01:55;;;;;;;3.35;2.42;;;23.10;84.00;;;;;;10554722;27;20022;-61
2022/08/02 14:06:57;;;;;;;3.80;2.47;;;23.10;84.00;;;;;;10547950;27;20048;-59
2022/08/02 14:17:08;;;;;;;2.95;2.42;;;23.20;84.00;;;;;;12097189;22;20245;-62
2022/08/02 14:22:08;;;;;;;3.13;2.50;;;23.30;84.00;;;;;;10553400;27;20471;-60
2022/08/02 14:27:09;;;;;;;3.33;2.67;;;23.30;84.60;;;;;;10532530;27;20137;-60
2022/08/02 14:32:10;;;;;;;2.47;2.28;;;23.30;84.00;;;;;;10535031;27;20477;-62
2022/08/02 14:37:11;;;;;;;5.35;2.70;;;23.60;83.90;;;;;;10522463;27;20050;-62
2022/08/02 14:42:11;;;;;;;3.33;2.55;;;23.60;83.60;;;;;;10549690;27;20657;-62
2022/08/02 14:47:12;;;;;;;4.85;2.67;;;23.70;83.40;;;;;;10547450;27;20489;-61
2022/08/02 14:52:13;;;;;;;4.50;2.63;;;23.80;83.10;;;;;;10549908;27;20508;-63
2022/08/02 14:57:14;;;;;;;4.78;2.22;;;24.10;82.80;;;;;;10560454;27;20650;-63
2022/08/02 15:02:15;;;;;;;3.90;2.40;;;24.00;82.80;;;;;;10557429;27;20027;-62
2022/08/02 15:07:16;;;;;;;2.60;2.30;;;24.10;82.50;;;;;;10553299;27;20543;-62
2022/08/02 15:12:17;;;;;;;3.03;2.25;;;24.10;82.30;;;;;;10553559;27;20033;-62
2022/08/02 15:17:18;;;;;;;2.10;1.90;;;24.20;82.00;;;;;;10564174;27;20475;-62
2022/08/02 15:22:18;;;;;;;2.78;1.88;;;24.40;81.80;;;;;;10551325;27;20196;-62
2022/08/02 15:27:19;;;;;;;2.63;2.22;;;24.40;81.50;;;;;;10537118;27;20039;-61
2022/08/02 15:32:20;;;;;;;4.30;2.30;;;24.50;81.30;;;;;;10548710;27;20031;-62
2022/08/02 15:37:21;;;;;;;7.60;2.22;;;24.60;81.20;;;;;;10545865;27;20548;-64
2022/08/02 15:42:21;;;;;;;2.70;1.70;;;24.70;81.60;;;;;;10560762;27;20543;-63
2022/08/02 15:47:22;;;;;;;2.58;2.20;;;24.80;80.70;;;;;;10574319;27;20030;-64
2022/08/02 15:52:23;;;;;;;2.72;1.83;;;24.90;80.70;;;;;;10549443;27;20316;-62
2022/08/02 15:57:24;;;;;;;4.85;1.92;;;24.60;80.20;;;;;;10549667;27;21013;-65
2022/08/02 16:02:25;;;;;;;3.42;1.63;;;25.10;80.40;;;;;;10565095;27;20156;-62
2022/08/02 16:07:25;;;;;;;4.10;1.90;;;25.20;80.20;;;;;;10572158;27;20023;-63
2022/08/02 16:12:26;;;;;;;3.05;1.90;;;25.30;80.10;;;;;;10572430;27;20027;-63
2022/08/02 16:17:27;;;;;;;2.10;1.90;;;25.20;80.10;;;;;;10565844;27;20090;-63
2022/08/02 16:22:28;;;;;;;2.97;1.50;;;25.20;80.40;;;;;;10559159;27;20030;-62
2022/08/02 16:27:28;;;;;;;2.88;1.67;;;24.80;80.40;;;;;;10561219;27;20138;-63
2022/08/02 16:32:29;;;;;;;3.00;1.52;;;25.10;80.90;;;;;;10576630;27;20054;-63
2022/08/02 16:37:30;;;;;;;2.50;1.70;;;25.00;81.10;;;;;;10573872;27;20301;-63
2022/08/02 16:42:30;;;;;;;3.25;2.40;;;24.90;81.20;;;;;;10573507;27;20070;-63
2022/08/02 16:47:31;;;;;;;4.47;1.90;;;24.90;80.90;;;;;;10563439;27;20115;-67
2022/08/02 16:52:32;;;;;;;5.97;2.10;;;25.00;80.20;;;;;;10558650;27;20022;-67
2022/08/02 16:57:36;;;;;;;9.05;2.40;;;25.00;79.90;;;;;;10543888;27;20119;-67
2022/08/02 17:02:38;;;;;;;4.18;1.95;;;25.10;79.70;;;;;;10553636;27;20338;-67
2022/08/02 17:07:39;;;;;;;6.82;2.10;;;25.10;79.50;;;;;;10565045;27;20551;-68
2022/08/02 17:12:40;;;;;;;5.25;1.90;;;25.10;79.60;;;;;;10548275;27;20066;-73
2022/08/02 17:17:40;;;;;;;5.22;2.00;;;25.10;79.90;;;;;;10573802;27;20050;-70
2022/08/02 17:22:41;;;;;;;6.38;2.38;;;25.00;79.90;;;;;;10559646;27;20019;-67
2022/08/02 17:27:43;;;;;;;5.80;1.92;;;25.00;80.00;;;;;;10560828;27;20366;-67
2022/08/02 17:32:43;;;;;;;2.13;1.65;;;25.00;80.20;;;;;;10561844;27;20149;-67
2022/08/02 17:37:44;;;;;;;3.85;1.80;;;24.90;80.30;;;;;;10562065;27;20046;-69
2022/08/02 17:42:45;;;;;;;3.13;1.70;;;24.90;80.40;;;;;;10576057;27;20027;-67
2022/08/02 17:47:46;;;;;;;5.60;1.77;;;24.90;80.60;;;;;;10574060;27;20943;-67
2022/08/02 17:52:46;;;;;;;2.85;1.83;;;24.90;80.80;;;;;;10553054;27;20536;-67
2022/08/02 17:57:47;;;;;;;4.15;1.80;;;25.00;81.40;;;;;;10569858;27;20424;-67
2022/08/02 18:02:48;;;;;;;4.20;2.22;;;24.80;82.00;;;;;;10560123;27;20055;-67
2022/08/02 18:07:49;;;;;;;8.55;2.63;;;24.70;83.00;;;;;;10555271;27;20015;-68
2022/08/02 18:12:51;;;;;;;5.28;2.40;;;24.70;84.60;;;;;;10557628;27;20150;-67
2022/08/02 18:17:51;;;;;;;7.18;2.10;;;24.60;85.70;;;;;;10559653;27;20836;-67
2022/08/02 18:22:52;;;;;;;6.45;2.03;;;24.60;86.30;;;;;;10559242;27;20030;-68
2022/08/02 18:27:53;;;;;;;10.07;2.40;;;24.50;87.40;;;;;;10567293;27;20026;-67
2022/08/02 18:32:54;;;;;;;6.32;2.33;;;24.40;88.60;;;;;;10566101;27;20015;-68
2022/08/02 18:37:55;;;;;;;3.90;1.63;;;24.30;88.50;;;;;;10569794;27;20590;-67
2022/08/02 18:42:56;;;;;;;5.72;1.92;;;24.30;89.20;;;;;;10575932;27;20023;-68
2022/08/02 18:47:57;;;;;;;4.72;1.90;;;24.20;90.00;;;;;;10573738;27;20042;-68
2022/08/02 19:20:35;;;;;;;5.95;1.73;;;23.70;92.60;;;;;;10522501;27;20580;-76
2022/08/02 19:26:15;;;;;;;8.73;1.95;;;23.60;92.50;;;;;;10521322;27;20043;-77
2022/08/02 19:32:16;;;;;;;8.35;2.05;;;23.50;93.20;;;;;;10523083;27;20023;-76
2022/08/02 19:37:38;;;;;;;7.65;2.22;;;23.40;93.40;;;;;;10533006;27;20054;-76
2022/08/02 19:43:18;;;;;;;3.75;1.52;;;23.30;93.30;;;;;;10515648;27;20965;-76
2022/08/02 19:49:19;;;;;;;7.45;1.80;;;23.30;93.90;;;;;;10507727;27;20034;-74
2022/08/02 19:55:21;;;;;;;4.57;1.73;;;23.20;94.00;;;;;;10518684;27;20062;-72
2022/08/02 20:01:21;;;;;;;5.50;1.70;;;23.20;94.10;;;;;;10562022;27;20034;-74
2022/08/02 20:07:22;;;;;;;5.90;1.42;;;23.10;94.20;;;;;;10612522;27;20141;-74
2022/08/02 20:13:22;;;;;;;5.95;1.40;;;23.00;94.40;;;;;;10605923;27;20042;-74
2022/08/02 20:19:22;;;;;;;7.28;2.25;;;22.70;94.40;;;;;;10606836;27;20437;-73
2022/08/02 20:25:23;;;;;;;6.60;1.70;;;22.90;94.60;;;;;;10597841;27;20461;-72
2022/08/02 20:31:23;;;;;;;5.90;2.38;;;22.80;94.70;;;;;;10607548;27;20063;-75
2022/08/02 20:37:24;;;;;;;3.67;1.55;;;22.90;94.40;;;;;;10600896;27;20046;-71
2022/08/02 20:43:24;;;;;;;4.75;1.40;;;22.90;94.20;;;;;;10595524;27;20039;-71
2022/08/02 20:49:25;;;;;;;3.80;1.45;;;23.00;94.00;;;;;;10603243;27;20061;-71
2022/08/02 20:55:26;;;;;;;6.15;1.55;;;23.00;93.80;;;;;;10604149;27;20028;-71
2022/08/02 21:01:26;;;;;;;7.28;1.80;;;23.00;93.70;;;;;;10598451;27;20032;-77
2022/08/02 21:07:26;;;;;;;3.75;1.77;;;23.00;93.50;;;;;;10597287;27;20034;-73
2022/08/02 21:13:27;;;;;;;6.32;1.55;;;23.10;93.80;;;;;;10595821;27;20047;-76
